Time;durP1;ratioP1;P1;durP2;ratioP2;P2;SDS_P1;SDS_P2;PMS_P1;PMS_P2;Temp;Humidity;BMP_temperature;BMP_pressure;BME280_temperature;BME280_humidity;BME280_pressure;Samples;Min_cycle;Max_cycle;Signal;HPM_P1;HPM_P2
2022/09/11 00:00:40;;;;;;;1.35;0.70;;;;;;;15.17;91.45;100131.94;5569862;32;35552;-66
2022/09/11 00:03:45;;;;;;;1.37;0.60;;;;;;;15.13;92.25;100130.72;5569919;32;34041;-66
2022/09/11 00:06:49;;;;;;;1.37;0.70;;;;;;;15.14;91.45;100137.72;5569818;32;33966;-67
2022/09/11 00:09:51;;;;;;;2.10;0.75;;;;;;;15.14;91.66;100139.56;5555938;32;34085;-67
2022/09/11 00:12:54;;;;;;;1.10;0.70;;;;;;;15.07;93.25;100139.53;5569803;32;35186;-67
2022/09/11 00:15:57;;;;;;;1.52;0.60;;;;;;;14.96;93.39;100132.09;5570057;32;34296;-67
2022/09/11 00:19:05;;;;;;;1.52;0.70;;;;;;;14.88;94.32;100134.97;5556051;32;33207;-66
2022/09/11 00:22:10;;;;;;;0.95;0.50;;;;;;;15.01;92.15;100129.66;5569626;32;34480;-66
2022/09/11 00:25:13;;;;;;;1.10;0.60;;;;;;;15.23;89.79;100127.66;5569638;32;34402;-65
2022/09/11 00:28:21;;;;;;;2.65;0.60;;;;;;;15.30;89.37;100120.44;5569568;32;34027;-64
2022/09/11 00:31:26;;;;;;;0.98;0.50;;;;;;;15.39;88.69;100113.06;5569437;32;34837;-65
2022/09/11 00:34:29;;;;;;;0.95;0.50;;;;;;;15.38;88.65;100120.25;5569508;32;33985;-66
2022/09/11 00:37:32;;;;;;;1.02;0.50;;;;;;;15.36;88.25;100124.97;5569793;32;33947;-67
2022/09/11 00:40:47;;;;;;;1.30;0.60;;;;;;;15.34;88.46;100124.38;5569359;32;34622;-67
2022/09/11 00:43:55;;;;;;;1.42;0.60;;;;;;;15.32;88.11;100128.25;5569307;32;34556;-66
2022/09/11 00:47:07;;;;;;;1.80;0.60;;;;;;;15.40;87.73;100120.88;5569418;32;34020;-65
2022/09/11 00:50:17;;;;;;;0.85;0.50;;;;;;;15.34;88.17;100126.22;5569286;32;34359;-66
2022/09/11 00:53:24;;;;;;;2.67;0.60;;;;;;;15.29;88.55;100129.50;5555782;32;34486;-66
2022/09/11 00:56:30;;;;;;;1.58;0.60;;;;;;;15.21;88.94;100125.16;5569164;32;33990;-67
2022/09/11 00:59:34;;;;;;;2.00;0.57;;;;;;;15.27;88.96;100128.87;5569029;32;34040;-66
2022/09/11 01:02:39;;;;;;;1.12;0.60;;;;;;;15.14;89.85;100128.87;5568887;32;34080;-67
2022/09/11 01:05:43;;;;;;;1.42;0.50;;;;;;;15.04;90.31;100133.78;5555637;32;34221;-67
2022/09/11 01:08:45;;;;;;;1.98;0.80;;;;;;;14.91;91.26;100131.87;5569085;32;33989;-67
2022/09/11 01:12:03;;;;;;;2.12;0.60;;;;;;;14.84;91.68;100135.56;5570938;32;34008;-67
2022/09/11 01:15:11;;;;;;;0.95;0.50;;;;;;;14.84;91.88;100138.25;5557755;32;33913;-67
2022/09/11 01:18:31;;;;;;;2.05;0.57;;;;;;;14.81;92.24;100134.16;5571282;32;34053;-67
2022/09/11 01:21:43;;;;;;;1.23;0.60;;;;;;;14.75;92.59;100132.28;5557708;32;35340;-68
2022/09/11 01:25:06;;;;;;;1.35;0.47;;;;;;;14.63;93.89;100142.69;5557227;32;34326;-67
2022/09/11 01:28:20;;;;;;;1.77;0.50;;;;;;;14.54;94.51;100133.22;5571326;32;34585;-67
2022/09/11 01:31:27;;;;;;;2.75;0.70;;;;;;;14.47;95.54;100124.38;5571330;32;34620;-67
2022/09/11 01:34:39;;;;;;;1.25;0.60;;;;;;;14.45;95.24;100120.25;5571233;32;34187;-67
2022/09/11 01:38:03;;;;;;;1.85;0.60;;;;;;;14.33;97.43;100112.75;5571349;32;33977;-66
2022/09/11 01:41:19;;;;;;;1.77;0.50;;;;;;;14.28;97.97;100109.84;5557530;32;33957;-67
2022/09/11 01:44:27;;;;;;;1.55;0.60;;;;;;;14.32;96.92;100119.16;5571154;32;34260;-67
2022/09/11 01:47:33;;;;;;;1.45;0.65;;;;;;;14.31;97.11;100112.16;5571158;32;34002;-67
2022/09/11 01:50:40;;;;;;;2.65;0.77;;;;;;;14.30;97.24;100110.50;5557011;32;32849;-67
2022/09/11 01:53:47;;;;;;;1.58;0.60;;;;;;;14.26;98.04;100105.75;5571078;32;34665;-66
2022/09/11 01:57:05;;;;;;;2.28;0.60;;;;;;;14.23;97.65;100106.16;5570969;32;35079;-67
2022/09/11 02:00:11;;;;;;;1.42;0.80;;;;;;;14.23;97.75;100098.97;5556817;32;32327;-67
2022/09/11 02:03:25;;;;;;;1.58;0.50;;;;;;;14.17;98.37;100110.44;5571348;32;33908;-66
2022/09/11 02:06:36;;;;;;;0.80;0.50;;;;;;;14.13;98.55;100109.19;5570700;32;34794;-66
2022/09/11 02:10:01;;;;;;;0.73;0.50;;;;;;;14.16;98.64;100115.97;5570817;32;34068;-67
2022/09/11 02:13:13;;;;;;;0.70;0.60;;;;;;;14.16;98.65;100106.13;5570855;32;34668;-66
2022/09/11 02:16:28;;;;;;;0.75;0.57;;;;;;;14.04;100.00;100099.69;5557303;32;33995;-65
2022/09/11 02:19:31;;;;;;;1.87;0.60;;;;;;;14.06;99.93;100102.97;5570766;32;34704;-67
2022/09/11 02:22:35;;;;;;;2.30;0.75;;;;;;;14.12;99.11;100107.53;5570061;32;34036;-67
2022/09/11 02:25:38;;;;;;;1.02;0.70;;;;;;;14.04;100.00;100101.56;5571236;32;34017;-66
2022/09/11 02:28:42;;;;;;;1.35;0.70;;;;;;;14.02;99.88;100099.06;5570794;32;33942;-67
2022/09/11 02:31:45;;;;;;;0.68;0.52;;;;;;;13.97;100.00;100095.34;5570744;32;35266;-66
2022/09/11 02:34:49;;;;;;;0.93;0.70;;;;;;;13.92;100.00;100086.09;5557139;32;33037;-66
2022/09/11 02:38:19;;;;;;;1.17;0.80;;;;;;;13.98;100.00;100091.66;5570566;32;34257;-66
2022/09/11 02:41:29;;;;;;;1.23;0.68;;;;;;;13.95;100.00;100076.84;5556827;32;34036;-66
2022/09/11 02:44:39;;;;;;;2.87;0.68;;;;;;;13.93;100.00;100085.06;5557088;32;34010;-66
2022/09/11 02:48:05;;;;;;;2.67;0.60;;;;;;;13.93;100.00;100084.25;5570855;32;34576;-67
2022/09/11 02:51:40;;;;;;;3.08;0.60;;;;;;;13.98;100.00;100083.66;5570518;32;33951;-66
2022/09/11 02:55:02;;;;;;;1.33;0.73;;;;;;;13.96;100.00;100094.50;5570484;32;34395;-66
2022/09/11 02:58:25;;;;;;;1.60;0.70;;;;;;;13.91;100.00;100091.63;5570833;32;34274;-66
2022/09/11 03:01:30;;;;;;;1.87;0.70;;;;;;;13.87;100.00;100091.19;5556875;32;33810;-67
2022/09/11 03:04:35;;;;;;;2.65;0.60;;;;;;;13.92;100.00;100099.44;5570458;32;34297;-66
2022/09/11 03:07:38;;;;;;;1.35;0.52;;;;;;;13.92;100.00;100099.44;5570433;32;33988;-67
2022/09/11 03:10:41;;;;;;;1.67;0.70;;;;;;;13.88;100.00;100095.50;5549860;32;34263;-67
2022/09/11 03:13:44;;;;;;;1.45;0.52;;;;;;;13.89;100.00;100102.47;5550909;32;35436;-67
2022/09/11 03:16:48;;;;;;;2.67;0.77;;;;;;;13.82;100.00;100098.13;5551288;32;33999;-67
2022/09/11 03:19:52;;;;;;;1.58;0.60;;;;;;;13.79;100.00;100096.69;5551064;32;34022;-66
2022/09/11 03:22:55;;;;;;;3.25;0.70;;;;;;;13.86;100.00;100102.03;5550823;32;33952;-67
2022/09/11 03:25:58;;;;;;;1.52;0.65;;;;;;;13.88;100.00;100092.84;5550807;32;34671;-67
2022/09/11 03:29:01;;;;;;;1.65;0.60;;;;;;;13.81;100.00;100099.13;5551116;32;34591;-67
2022/09/11 03:32:04;;;;;;;2.42;0.50;;;;;;;13.80;100.00;100102.81;5550089;32;33890;-67
2022/09/11 03:35:07;;;;;;;2.22;0.65;;;;;;;13.67;100.00;100100.06;5550648;32;33855;-67
2022/09/11 03:38:12;;;;;;;1.17;0.60;;;;;;;13.57;100.00;100097.75;5550069;32;34098;-67
2022/09/11 03:41:15;;;;;;;1.25;0.60;;;;;;;13.62;100.00;100105.97;5549771;32;34146;-67
2022/09/11 03:44:18;;;;;;;1.95;0.68;;;;;;;13.67;100.00;100100.06;5550694;32;33900;-67
2022/09/11 03:47:21;;;;;;;2.35;0.60;;;;;;;13.88;100.00;100089.34;5550966;32;34074;-67
2022/09/11 03:50:23;;;;;;;1.35;0.68;;;;;;;14.12;100.00;100088.03;5550221;32;34572;-65
2022/09/11 03:53:27;;;;;;;2.67;0.60;;;;;;;14.36;99.13;100090.25;5550515;32;33931;-67
2022/09/11 03:56:32;;;;;;;3.42;0.75;;;;;;;14.42;97.99;100091.28;5549983;32;33943;-67
2022/09/11 03:59:34;;;;;;;1.35;0.80;;;;;;;14.53;96.82;100091.53;5550500;32;34007;-67
2022/09/11 04:02:37;;;;;;;6.53;0.70;;;;;;;14.47;97.10;100088.84;5550356;32;34660;-66
2022/09/11 04:05:42;;;;;;;0.93;0.50;;;;;;;14.52;96.95;100097.06;5542177;32;240344;-68
2022/09/11 04:08:45;;;;;;;0.62;0.50;;;;;;;14.67;95.54;100098.53;5555669;32;34551;-66
2022/09/11 04:11:48;;;;;;;1.33;0.50;;;;;;;14.70;95.13;100105.34;5569787;32;34694;-66
2022/09/11 04:14:52;;;;;;;1.17;0.50;;;;;;;14.77;95.12;100104.31;5556251;32;32988;-66
2022/09/11 04:17:55;;;;;;;1.85;0.50;;;;;;;14.85;94.28;100103.34;5556473;32;34574;-67
2022/09/11 04:20:58;;;;;;;3.00;0.55;;;;;;;14.97;93.23;100106.22;5569920;32;33888;-67
2022/09/11 04:24:01;;;;;;;0.80;0.50;;;;;;;15.04;92.60;100115.09;5570027;32;34680;-67
2022/09/11 04:27:04;;;;;;;1.55;0.40;;;;;;;15.07;92.93;100120.00;5556124;32;32637;-66
2022/09/11 04:30:07;;;;;;;2.15;0.50;;;;;;;15.04;92.89;100118.56;5556311;32;33899;-66
2022/09/11 04:33:10;;;;;;;1.50;0.60;;;;;;;15.07;92.63;100115.50;5569610;32;34716;-67
2022/09/11 04:36:17;;;;;;;2.17;0.73;;;;;;;15.15;91.99;100114.50;5555897;32;34365;-66
2022/09/11 04:39:20;;;;;;;1.27;0.50;;;;;;;15.14;92.41;100108.31;5569772;32;33912;-67
2022/09/11 04:42:23;;;;;;;0.75;0.50;;;;;;;15.14;92.59;100105.66;5569293;32;35391;-66
2022/09/11 04:45:32;;;;;;;1.55;0.68;;;;;;;15.20;92.56;100117.38;5568191;32;34046;-66
2022/09/11 04:48:38;;;;;;;1.27;0.57;;;;;;;15.11;92.88;100106.03;5542575;32;33586;-66
2022/09/11 04:51:42;;;;;;;2.45;0.60;;;;;;;15.17;93.10;100099.06;5555999;32;33851;-67
2022/09/11 04:54:45;;;;;;;0.95;0.50;;;;;;;15.05;94.00;100096.19;5569492;32;34130;-65
2022/09/11 04:57:52;;;;;;;4.85;0.70;;;;;;;15.03;94.54;100095.56;5542099;32;34417;-67
2022/09/11 05:00:54;;;;;;;1.20;0.50;;;;;;;14.98;94.86;100091.84;5554849;32;33348;-67
2022/09/11 05:04:00;;;;;;;2.05;0.60;;;;;;;14.99;95.15;100091.66;5555424;32;32737;-67
2022/09/11 05:07:03;;;;;;;2.33;0.68;;;;;;;15.06;94.90;100099.66;5555297;32;33991;-66
2022/09/11 05:10:06;;;;;;;3.28;0.65;;;;;;;15.15;94.30;100099.25;5569289;32;34513;-66
2022/09/11 05:13:10;;;;;;;1.75;0.55;;;;;;;15.13;94.59;100113.84;5568757;32;34713;-67
2022/09/11 05:16:16;;;;;;;1.62;0.68;;;;;;;15.12;94.30;100105.00;5568840;32;35246;-66
2022/09/11 05:19:19;;;;;;;1.08;0.60;;;;;;;15.11;95.44;100107.88;5568766;32;35108;-66
2022/09/11 05:22:22;;;;;;;2.12;0.68;;;;;;;15.05;95.28;100095.38;5568745;32;34698;-67
2022/09/11 05:25:28;;;;;;;3.03;0.70;;;;;;;14.99;96.50;100110.34;5568999;32;34648;-66
2022/09/11 05:28:32;;;;;;;1.77;0.65;;;;;;;14.98;96.99;100110.53;5568367;32;34100;-67
2022/09/11 05:31:36;;;;;;;1.77;0.77;;;;;;;15.11;96.69;100115.91;5568686;32;33928;-69
2022/09/11 05:34:39;;;;;;;1.48;0.60;;;;;;;15.03;96.75;100116.09;5568465;32;34082;-67
2022/09/11 05:37:42;;;;;;;5.45;0.88;;;;;;;15.11;96.42;100110.56;5568243;32;34033;-68
2022/09/11 05:40:48;;;;;;;2.37;0.70;;;;;;;15.14;95.99;100118.19;5568225;32;34624;-68
2022/09/11 05:43:53;;;;;;;1.85;0.55;;;;;;;15.25;95.45;100125.56;5568206;32;34071;-67
2022/09/11 05:46:57;;;;;;;1.15;0.60;;;;;;;15.42;94.63;100129.50;5568618;32;34007;-68
2022/09/11 05:50:00;;;;;;;1.83;0.62;;;;;;;15.52;94.06;100126.47;5554441;32;34558;-67
2022/09/11 05:53:04;;;;;;;3.12;0.70;;;;;;;15.62;92.56;100127.69;5568077;32;34011;-66
2022/09/11 05:56:13;;;;;;;1.25;0.70;;;;;;;15.79;92.26;100128.06;5568936;32;33987;-66
2022/09/11 05:59:16;;;;;;;1.30;0.73;;;;;;;15.88;91.70;100131.34;5570954;32;33966;-68
2022/09/11 06:02:19;;;;;;;1.00;0.60;;;;;;;16.06;90.77;100129.69;5556903;32;33355;-66
2022/09/11 06:05:22;;;;;;;2.53;0.90;;;;;;;16.15;89.80;100130.28;5570949;32;34736;-67
2022/09/11 06:08:25;;;;;;;1.42;0.68;;;;;;;16.42;88.02;100126.47;5570845;32;35179;-68
2022/09/11 06:11:28;;;;;;;1.77;0.62;;;;;;;16.47;87.29;100132.03;5570952;32;34014;-67
2022/09/11 06:14:31;;;;;;;3.47;0.70;;;;;;;16.66;86.53;100126.81;5556929;32;33377;-66
2022/09/11 06:17:34;;;;;;;1.77;0.80;;;;;;;16.78;84.44;100134.00;5570574;32;34594;-67
2022/09/11 06:20:36;;;;;;;1.10;0.60;;;;;;;16.92;83.92;100132.06;5556722;32;32818;-66
2022/09/11 06:23:42;;;;;;;1.35;0.60;;;;;;;16.92;83.42;100129.38;5571289;32;33893;-67
2022/09/11 06:26:45;;;;;;;1.00;0.50;;;;;;;17.29;81.95;100141.09;5570790;32;35118;-66
2022/09/11 06:29:49;;;;;;;1.70;0.50;;;;;;;17.67;79.31;100138.38;5570481;32;34061;-67
2022/09/11 06:32:55;;;;;;;1.15;0.65;;;;;;;17.83;77.47;100134.28;5556617;32;32341;-65
2022/09/11 06:36:00;;;;;;;1.45;0.50;;;;;;;18.16;76.20;100138.28;5570895;32;33907;-67
2022/09/11 06:39:03;;;;;;;2.55;0.95;;;;;;;18.29;74.60;100139.19;5557047;32;33248;-67
2022/09/11 06:42:07;;;;;;;1.90;0.52;;;;;;;18.32;74.83;100134.19;5556772;32;35293;-67
2022/09/11 06:45:10;;;;;;;1.98;0.68;;;;;;;19.05;72.18;100143.00;5556641;32;33785;-66
2022/09/11 06:48:17;;;;;;;1.30;0.70;;;;;;;18.67;72.96;100143.31;5556871;32;33274;-68
2022/09/11 06:51:22;;;;;;;1.42;0.55;;;;;;;18.53;73.59;100132.91;5570463;32;34559;-67
2022/09/11 06:54:26;;;;;;;1.45;0.60;;;;;;;19.24;71.28;100129.47;5570650;32;34261;-66
2022/09/11 06:57:29;;;;;;;2.42;0.50;;;;;;;19.79;68.67;100141.66;5570367;32;34566;-66
2022/09/11 07:00:33;;;;;;;1.62;0.68;;;;;;;19.92;67.71;100149.50;5570550;32;34522;-69
2022/09/11 07:03:36;;;;;;;3.90;0.60;;;;;;;20.16;66.73;100146.78;5570399;32;33837;-69
2022/09/11 07:06:40;;;;;;;3.92;0.68;;;;;;;20.48;66.02;100141.87;5570437;32;34125;-65
2022/09/11 07:09:44;;;;;;;1.37;0.60;;;;;;;20.25;65.90;100150.75;5569194;32;33897;-69
2022/09/11 07:12:47;;;;;;;1.02;0.50;;;;;;;20.08;66.69;100142.59;5570069;32;34017;-67
2022/09/11 07:15:59;;;;;;;0.50;0.40;;;;;;;20.31;65.61;100141.78;5543459;32;33505;-68
2022/09/11 07:19:03;;;;;;;1.92;0.50;;;;;;;21.07;62.57;100138.69;5568601;32;34799;-68
2022/09/11 07:22:06;;;;;;;0.95;0.40;;;;;;;21.50;61.98;100146.22;5556301;32;33973;-67
2022/09/11 07:25:09;;;;;;;0.90;0.60;;;;;;;20.24;65.64;100141.03;5556002;32;32674;-66
2022/09/11 07:28:13;;;;;;;0.90;0.43;;;;;;;20.29;65.14;100133.06;5555892;32;33390;-67
2022/09/11 07:31:22;;;;;;;0.65;0.50;;;;;;;20.27;65.43;100132.50;5570235;32;35112;-68
2022/09/11 07:34:25;;;;;;;1.47;0.47;;;;;;;21.25;62.05;100137.72;5556372;32;32323;-68
2022/09/11 07:37:28;;;;;;;0.80;0.50;;;;;;;21.61;60.37;100139.13;5569819;32;33880;-67
2022/09/11 07:40:30;;;;;;;1.65;0.47;;;;;;;19.67;67.59;100140.00;5570246;32;34047;-66
2022/09/11 07:43:38;;;;;;;2.42;0.77;;;;;;;18.50;72.52;100126.13;5556046;32;32727;-67
2022/09/11 07:46:41;;;;;;;2.22;0.60;;;;;;;18.23;74.59;100127.47;5569894;32;34208;-66
2022/09/11 07:49:47;;;;;;;2.22;0.60;;;;;;;18.39;74.92;100126.91;5556141;32;32434;-67
2022/09/11 07:52:49;;;;;;;1.70;0.60;;;;;;;18.67;73.58;100123.69;5556107;32;32551;-66
2022/09/11 07:55:54;;;;;;;1.45;0.60;;;;;;;20.13;68.47;100125.72;5556712;32;34552;-67
2022/09/11 07:58:58;;;;;;;0.80;0.40;;;;;;;21.81;61.45;100134.03;5569764;32;34824;-66
2022/09/11 08:02:01;;;;;;;2.80;0.50;;;;;;;23.09;57.21;100137.34;5555883;32;33604;-68
2022/09/11 08:05:05;;;;;;;1.83;0.60;;;;;;;24.03;53.49;100141.09;5569721;32;34007;-68
2022/09/11 08:08:08;;;;;;;0.88;0.47;;;;;;;25.33;49.85;100130.19;5555684;32;33983;-67
2022/09/11 08:11:14;;;;;;;1.15;0.57;;;;;;;23.54;53.90;100135.06;5555403;32;32530;-68
2022/09/11 08:14:17;;;;;;;4.95;0.60;;;;;;;22.59;58.30;100132.16;5569806;32;33952;-66
2022/09/11 08:17:21;;;;;;;0.60;0.50;;;;;;;22.75;57.06;100140.19;5556065;32;34647;-68
2022/09/11 08:20:24;;;;;;;0.68;0.40;;;;;;;22.69;57.81;100138.50;5555349;32;32830;-68
2022/09/11 08:23:27;;;;;;;2.08;0.65;;;;;;;23.54;55.29;100131.53;5555720;32;32420;-68
2022/09/11 08:26:30;;;;;;;1.20;0.50;;;;;;;24.75;51.08;100142.28;5555647;32;32867;-68
2022/09/11 08:29:33;;;;;;;1.08;0.55;;;;;;;24.68;51.21;100137.12;5555646;32;32604;-68
2022/09/11 08:32:36;;;;;;;2.37;0.50;;;;;;;25.14;48.69;100143.50;5569462;32;34567;-67
2022/09/11 08:35:38;;;;;;;1.00;0.50;;;;;;;25.80;47.71;100149.00;5569118;32;33969;-67
2022/09/11 08:38:43;;;;;;;3.08;0.50;;;;;;;25.57;47.67;100131.31;5569683;32;33982;-69
2022/09/11 08:41:58;;;;;;;1.37;0.60;;;;;;;25.05;48.77;100132.34;5568887;32;34036;-68
2022/09/11 08:45:05;;;;;;;0.77;0.52;;;;;;;26.00;47.34;100132.63;5568495;32;34756;-67
2022/09/11 08:48:10;;;;;;;1.25;0.50;;;;;;;25.15;47.83;100126.13;5554520;32;32774;-66
2022/09/11 08:51:16;;;;;;;1.85;0.40;;;;;;;25.17;47.79;100129.41;5554747;32;33375;-69
2022/09/11 08:54:26;;;;;;;2.15;0.40;;;;;;;25.43;47.35;100127.50;5554371;32;33023;-66
2022/09/11 08:57:45;;;;;;;1.45;0.57;;;;;;;24.48;48.57;100127.00;5542807;32;34610;-68
2022/09/11 09:00:55;;;;;;;0.98;0.50;;;;;;;22.40;55.99;100128.94;5568528;32;34682;-66
2022/09/11 09:03:58;;;;;;;2.75;0.73;;;;;;;22.07;57.11;100135.25;5568822;32;34020;-65
2022/09/11 09:07:17;;;;;;;1.15;0.50;;;;;;;22.09;57.55;100141.22;5554616;32;33294;-68
2022/09/11 09:10:41;;;;;;;1.92;0.90;;;;;;;21.22;59.64;100144.41;5561949;32;34079;-68
2022/09/11 09:14:19;;;;;;;2.17;0.50;;;;;;;21.01;62.73;100138.87;5568396;32;33915;-66
2022/09/11 09:17:31;;;;;;;1.30;0.60;;;;;;;20.54;63.56;100138.19;5568696;32;33874;-68
2022/09/11 09:20:41;;;;;;;1.33;0.55;;;;;;;20.97;62.39;100145.78;5568150;32;35449;-67
2022/09/11 09:23:51;;;;;;;1.50;0.60;;;;;;;20.66;63.87;100142.50;5554067;32;33640;-67
2022/09/11 09:26:55;;;;;;;3.90;0.70;;;;;;;20.72;63.69;100146.94;5568238;32;33965;-67
2022/09/11 09:30:04;;;;;;;0.85;0.62;;;;;;;20.25;65.56;100145.37;5568363;32;34015;-66
2022/09/11 09:33:30;;;;;;;2.35;0.62;;;;;;;20.41;65.55;100154.63;5557038;32;33033;-67
2022/09/11 09:36:38;;;;;;;5.85;0.90;;;;;;;19.82;66.25;100151.94;5570801;32;33963;-69
2022/09/11 09:39:41;;;;;;;2.28;0.60;;;;;;;19.21;68.78;100154.16;5570841;32;33944;-69
2022/09/11 09:43:23;;;;;;;1.08;0.60;;;;;;;19.40;68.35;100150.34;5571063;32;34012;-68
2022/09/11 09:46:47;;;;;;;3.15;0.60;;;;;;;19.62;66.74;100139.88;5506641;32;34610;-68
2022/09/11 09:49:55;;;;;;;4.32;0.70;;;;;;;19.72;67.40;100135.56;5557083;32;33414;-66
2022/09/11 09:53:15;;;;;;;1.25;0.60;;;;;;;19.99;66.18;100127.84;5556953;32;33928;-67
2022/09/11 09:56:20;;;;;;;2.03;0.80;;;;;;;20.04;64.69;100124.44;5557029;32;32488;-67
2022/09/11 09:59:34;;;;;;;0.80;0.50;;;;;;;20.36;65.49;100123.03;5570566;32;33807;-67
2022/09/11 10:02:38;;;;;;;0.98;0.60;;;;;;;20.64;63.27;100116.84;5570774;32;34309;-69
2022/09/11 10:05:43;;;;;;;0.85;0.50;;;;;;;20.47;63.82;100115.97;5556722;32;33537;-68
2022/09/11 10:08:46;;;;;;;1.75;0.57;;;;;;;20.55;63.12;100118.28;5557277;32;33967;-67
2022/09/11 10:12:06;;;;;;;1.65;0.45;;;;;;;20.94;62.27;100111.22;5557136;32;34029;-67
2022/09/11 10:15:17;;;;;;;;;;;;;;;20.91;61.69;100111.72;5571133;32;34128;-68
2022/09/11 10:18:41;;;;;;;0.80;0.60;;;;;;;21.06;61.47;100118.16;5570802;32;34883;-68
2022/09/11 10:21:44;;;;;;;1.37;0.62;;;;;;;21.14;60.39;100107.03;5570455;32;34431;-68
2022/09/11 10:25:14;;;;;;;1.25;0.60;;;;;;;21.01;61.66;100095.72;5570811;32;34169;-68
2022/09/11 10:28:24;;;;;;;1.07;0.50;;;;;;;21.81;59.75;100101.63;5556938;32;33147;-65
2022/09/11 10:31:27;;;;;;;1.40;0.60;;;;;;;22.58;55.65;100098.88;5570620;32;33810;-69
2022/09/11 10:34:39;;;;;;;0.82;0.50;;;;;;;21.72;57.53;100103.12;5570616;32;35219;-68
2022/09/11 10:37:42;;;;;;;3.37;0.80;;;;;;;20.65;61.74;100092.34;5570643;32;33936;-66
2022/09/11 10:40:56;;;;;;;1.70;0.70;;;;;;;20.57;63.11;100108.91;5570616;32;34603;-68
2022/09/11 10:44:02;;;;;;;2.55;0.52;;;;;;;20.33;63.71;100099.25;5555448;32;32733;-68
2022/09/11 10:47:24;;;;;;;0.80;0.60;;;;;;;20.17;64.46;100092.69;5556801;32;34200;-66
2022/09/11 10:50:28;;;;;;;0.82;0.50;;;;;;;20.30;64.15;100100.53;5570287;32;35201;-65
2022/09/11 10:53:36;;;;;;;1.42;0.60;;;;;;;20.37;64.45;100100.41;5543995;32;33991;-66
2022/09/11 10:57:03;;;;;;;2.37;0.70;;;;;;;20.48;63.64;100102.22;5556744;32;34022;-68
2022/09/11 11:00:22;;;;;;;1.50;0.55;;;;;;;21.04;61.75;100100.59;5570310;32;33821;-67
2022/09/11 11:03:28;;;;;;;0.80;0.60;;;;;;;21.34;60.56;100101.16;5556440;32;33144;-69
2022/09/11 11:06:49;;;;;;;1.20;0.70;;;;;;;20.99;61.91;100093.25;5570205;31;34043;-68
2022/09/11 11:10:06;;;;;;;0.93;0.40;;;;;;;21.13;61.40;100102.69;5556861;32;34676;-68
2022/09/11 11:13:34;;;;;;;0.65;0.50;;;;;;;21.54;60.37;100096.06;5570323;32;33992;-67
2022/09/11 11:16:56;;;;;;;1.58;0.60;;;;;;;23.51;53.82;100083.31;5570203;32;34086;-68
2022/09/11 11:20:25;;;;;;;1.48;0.65;;;;;;;24.77;50.30;100091.28;5570606;32;34613;-68
2022/09/11 11:24:02;;;;;;;1.02;0.50;;;;;;;23.91;50.03;100083.59;5546409;32;33893;-69
2022/09/11 11:27:27;;;;;;;2.92;0.57;;;;;;;23.31;51.52;100081.22;5570121;32;34555;-68
2022/09/11 11:30:43;;;;;;;0.77;0.57;;;;;;;22.67;54.18;100080.31;5556170;32;32877;-69
2022/09/11 11:34:15;;;;;;;1.87;0.57;;;;;;;22.39;56.17;100084.87;5556137;32;34000;-68
2022/09/11 11:37:22;;;;;;;0.77;0.50;;;;;;;21.68;58.76;100080.38;5570365;32;33963;-68
2022/09/11 11:40:35;;;;;;;1.42;0.70;;;;;;;21.10;60.99;100075.38;5555924;32;33552;-68
2022/09/11 11:43:41;;;;;;;1.52;0.75;;;;;;;20.99;62.05;100073.53;5556032;32;32788;-67
2022/09/11 11:46:51;;;;;;;2.10;0.77;;;;;;;20.92;62.79;100075.56;5556185;32;32686;-67
2022/09/11 11:50:04;;;;;;;1.90;0.70;;;;;;;21.06;63.02;100080.41;5569939;32;34118;-68
2022/09/11 11:53:39;;;;;;;1.27;0.68;;;;;;;21.10;63.13;100078.06;5556357;32;35135;-68
2022/09/11 11:56:55;;;;;;;1.08;0.60;;;;;;;20.93;63.54;100079.91;5537780;32;34134;-68
2022/09/11 12:00:08;;;;;;;0.85;0.60;;;;;;;20.73;64.41;100077.66;5556237;32;32879;-68
2022/09/11 12:03:22;;;;;;;1.92;0.60;;;;;;;20.53;64.24;100080.78;5543414;32;34480;-68
2022/09/11 12:06:25;;;;;;;1.87;0.70;;;;;;;20.45;65.38;100073.09;5556165;32;32443;-68
2022/09/11 12:09:30;;;;;;;1.65;0.60;;;;;;;20.54;62.49;100078.91;5569881;32;33895;-68
2022/09/11 12:12:47;;;;;;;0.90;0.50;;;;;;;20.75;62.72;100076.38;5569785;32;34088;-67
2022/09/11 12:16:16;;;;;;;1.12;0.40;;;;;;;20.69;62.94;100087.28;5569807;32;33875;-68
2022/09/11 12:19:21;;;;;;;0.80;0.53;;;;;;;20.56;60.77;100071.41;5538581;32;34588;-66
2022/09/11 12:22:33;;;;;;;0.95;0.47;;;;;;;20.70;59.28;100070.06;5569487;32;34182;-65
2022/09/11 12:25:35;;;;;;;1.90;0.60;;;;;;;20.94;58.30;100071.59;5569146;32;34146;-67
2022/09/11 12:28:39;;;;;;;0.60;0.50;;;;;;;20.70;59.69;100067.37;5555562;32;32285;-67
2022/09/11 12:31:48;;;;;;;1.42;0.50;;;;;;;20.91;59.17;100063.16;5555219;32;32626;-68
2022/09/11 12:34:54;;;;;;;0.60;0.47;;;;;;;21.24;56.08;100082.94;5569434;32;34061;-67
2022/09/11 12:38:39;;;;;;;0.90;0.50;;;;;;;23.21;50.47;100071.13;5569263;32;34043;-66
2022/09/11 12:41:44;;;;;;;1.10;0.60;;;;;;;23.54;49.79;100064.66;5540280;32;33976;-69
2022/09/11 12:44:47;;;;;;;1.15;0.50;;;;;;;26.48;42.68;100068.56;5569274;32;34249;-67
2022/09/11 12:47:50;;;;;;;2.03;0.47;;;;;;;27.79;38.96;100060.56;5555547;32;32317;-69
2022/09/11 12:50:55;;;;;;;0.85;0.43;;;;;;;26.91;41.23;100067.00;5569367;32;33986;-67
2022/09/11 12:54:01;;;;;;;5.15;0.60;;;;;;;28.57;37.60;100068.34;5568788;32;34406;-68
2022/09/11 12:57:08;;;;;;;4.18;0.70;;;;;;;29.29;36.96;100065.06;5554960;32;32736;-67
2022/09/11 13:00:22;;;;;;;1.77;0.90;;;;;;;26.03;43.03;100057.87;5568662;32;34030;-68
2022/09/11 13:03:30;;;;;;;3.25;0.65;;;;;;;24.69;47.40;100054.63;5554880;32;32972;-67
2022/09/11 13:06:41;;;;;;;1.08;0.50;;;;;;;23.76;49.82;100045.56;5555893;32;34227;-66
2022/09/11 13:09:48;;;;;;;1.27;0.57;;;;;;;23.18;52.15;100052.72;5557435;32;32765;-68
2022/09/11 13:12:52;;;;;;;2.35;0.57;;;;;;;25.32;47.60;100061.50;5571355;32;33882;-68
2022/09/11 13:15:57;;;;;;;1.73;0.50;;;;;;;27.04;42.77;100041.84;5557334;32;32445;-68
2022/09/11 13:19:09;;;;;;;1.00;0.47;;;;;;;24.89;47.92;100046.56;5571119;32;34145;-68
2022/09/11 13:22:26;;;;;;;0.88;0.50;;;;;;;23.92;51.65;100039.12;5557338;32;32476;-67
2022/09/11 13:25:31;;;;;;;1.08;0.40;;;;;;;23.11;53.65;100038.56;5570953;32;34165;-68
2022/09/11 13:28:46;;;;;;;0.60;0.40;;;;;;;22.54;53.92;100041.81;5544502;32;32514;-68
2022/09/11 13:31:49;;;;;;;1.85;0.40;;;;;;;22.51;52.67;100026.06;5557293;32;32469;-68
2022/09/11 13:34:57;;;;;;;0.95;0.50;;;;;;;27.60;39.53;100039.47;5571185;32;33899;-69
2022/09/11 13:38:04;;;;;;;0.77;0.40;;;;;;;26.01;41.83;100027.44;5557383;32;32592;-68
2022/09/11 13:41:14;;;;;;;0.82;0.40;;;;;;;25.76;42.46;100022.88;5557407;32;33852;-68
2022/09/11 13:44:29;;;;;;;1.10;0.45;;;;;;;27.04;39.39;100024.72;5556764;32;32483;-69
2022/09/11 13:47:39;;;;;;;0.98;0.32;;;;;;;27.72;38.19;100016.47;5557566;32;34613;-69
2022/09/11 13:50:41;;;;;;;;;;;;;;;30.09;32.82;100014.69;5557594;32;33325;-67
2022/09/11 13:53:54;;;;;;;1.10;0.40;;;;;;;32.44;29.43;100029.25;5571314;32;34676;-67
2022/09/11 13:56:57;;;;;;;0.35;0.30;;;;;;;30.67;32.21;100028.47;5570855;32;33906;-68
2022/09/11 14:00:00;;;;;;;2.80;0.30;;;;;;;33.17;28.46;100031.09;5570664;32;34029;-68
2022/09/11 14:03:05;;;;;;;0.20;0.20;;;;;;;32.96;28.69;100015.59;5557446;32;34670;-68
2022/09/11 14:06:13;;;;;;;0.52;0.30;;;;;;;34.49;27.31;100020.81;5570792;32;33941;-68
2022/09/11 14:09:19;;;;;;;0.20;0.20;;;;;;;30.38;32.57;100014.34;5570565;32;34189;-68
2022/09/11 14:12:23;;;;;;;0.30;0.20;;;;;;;26.73;38.86;100011.28;5570872;32;33896;-69
2022/09/11 14:15:36;;;;;;;0.68;0.20;;;;;;;24.38;44.55;100006.84;5556635;32;33216;-68
2022/09/11 14:18:47;;;;;;;0.25;0.20;;;;;;;23.97;46.13;100008.53;5570805;32;34244;-67
2022/09/11 14:21:50;;;;;;;1.75;0.30;;;;;;;23.46;46.96;99996.62;5557020;32;32457;-67
2022/09/11 14:25:08;;;;;;;1.27;0.50;;;;;;;23.07;48.23;99996.88;5570269;32;34556;-66
2022/09/11 14:28:34;;;;;;;0.50;0.30;;;;;;;22.68;49.78;100008.94;5570738;32;35156;-66
2022/09/11 14:31:43;;;;;;;1.48;0.40;;;;;;;22.52;51.02;99999.84;5543679;32;32631;-67
2022/09/11 14:34:45;;;;;;;0.90;0.40;;;;;;;22.18;52.61;99993.81;5556667;32;32446;-67